createdAt,value
2018-12-14T00:01:02.791Z,71.91
2018-12-14T00:03:30.368Z,72.55
2018-12-14T00:05:58.059Z,73.66
2018-12-14T00:08:25.648Z,73.93
2018-12-14T00:10:53.222Z,73.73
2018-12-14T00:13:21.057Z,74.35
2018-12-14T00:15:48.703Z,74.83
2018-12-14T00:18:16.292Z,74.05
2018-12-14T00:20:43.946Z,74.17
2018-12-14T00:23:11.522Z,73.80
2018-12-14T00:25:39.101Z,73.72
2018-12-14T00:28:06.810Z,72.70
2018-12-14T00:30:34.385Z,72.46
2018-12-14T00:33:01.988Z,72.83
2018-12-14T00:35:29.654Z,72.81
2018-12-14T00:37:57.238Z,72.32
2018-12-14T00:40:24.809Z,71.98
2018-12-14T00:42:52.434Z,72.07
2018-12-14T00:45:20.013Z,72.11
2018-12-14T00:47:47.585Z,72.18
2018-12-14T00:50:15.364Z,71.37
2018-12-14T00:52:42.948Z,71.71
2018-12-14T00:55:10.641Z,70.99
2018-12-14T00:57:38.436Z,71.71
2018-12-14T01:00:06.330Z,72.77
2018-12-14T01:02:33.913Z,73.89
2018-12-14T01:05:01.833Z,74.30
2018-12-14T01:07:29.408Z,74.20
2018-12-14T01:09:56.998Z,74.51
2018-12-14T01:12:24.722Z,74.60
2018-12-14T01:14:52.318Z,72.19
2018-12-14T01:17:19.885Z,72.64
2018-12-14T01:19:47.706Z,74.46
2018-12-14T01:22:15.318Z,75.87
2018-12-14T01:24:42.888Z,77.72
2018-12-14T01:27:10.688Z,77.96
2018-12-14T01:29:38.321Z,77.98
2018-12-14T01:32:05.866Z,78.05
2018-12-14T01:34:33.512Z,78.27
2018-12-14T01:37:01.102Z,77.77
2018-12-14T01:39:28.675Z,77.07
2018-12-14T01:41:56.450Z,77.02
2018-12-14T01:44:24.042Z,76.79
2018-12-14T01:46:51.608Z,76.96
2018-12-14T01:49:19.263Z,77.56
2018-12-14T01:51:46.853Z,78.04
2018-12-14T01:54:14.429Z,78.95
2018-12-14T01:56:42.037Z,79.16
2018-12-14T01:59:09.644Z,78.80
2018-12-14T02:01:37.220Z,78.19
2018-12-14T02:04:04.859Z,76.74
2018-12-14T02:06:32.429Z,76.37
2018-12-14T02:08:59.993Z,76.48
2018-12-14T02:11:27.637Z,76.32
2018-12-14T02:13:55.217Z,76.06
2018-12-14T02:16:23.608Z,76.97
2018-12-14T02:18:51.213Z,77.18
2018-12-14T02:21:18.795Z,77.16
2018-12-14T02:23:46.357Z,77.77
2018-12-14T02:26:13.977Z,77.42
2018-12-14T02:28:41.552Z,77.47
2018-12-14T02:31:09.130Z,78.12
2018-12-14T02:33:36.945Z,78.30
2018-12-14T02:36:04.522Z,78.03
2018-12-14T02:38:32.106Z,77.73
2018-12-14T02:40:59.838Z,77.76
2018-12-14T02:43:27.465Z,77.58
2018-12-14T02:45:55.022Z,77.56
2018-12-14T02:48:22.805Z,77.51
2018-12-14T02:50:50.364Z,77.47
2018-12-14T02:53:17.921Z,77.34
2018-12-14T02:55:45.523Z,76.97
2018-12-14T02:58:13.085Z,76.90
2018-12-14T03:00:40.667Z,76.97
2018-12-14T03:03:08.296Z,77.13
2018-12-14T03:05:35.893Z,76.56
2018-12-14T03:08:03.468Z,75.03
2018-12-14T03:10:31.274Z,74.66
2018-12-14T03:12:58.843Z,74.81
2018-12-14T03:15:26.425Z,74.81
2018-12-14T03:17:54.276Z,74.86
2018-12-14T03:20:21.848Z,74.57
2018-12-14T03:22:49.441Z,74.52
2018-12-14T03:25:17.221Z,73.75
2018-12-14T03:27:44.788Z,72.54
2018-12-14T03:30:12.398Z,72.96
2018-12-14T03:32:40.203Z,73.63
2018-12-14T03:35:07.870Z,73.45
2018-12-14T03:37:35.453Z,73.17
2018-12-14T03:40:03.125Z,73.65
2018-12-14T03:42:34.192Z,72.63
2018-12-14T03:44:58.343Z,72.28
2018-12-14T03:47:26.276Z,72.27
2018-12-14T03:49:53.840Z,73.01
2018-12-14T03:52:21.400Z,72.80
2018-12-14T03:54:49.369Z,72.23
2018-12-14T03:57:16.950Z,72.56
2018-12-14T03:59:44.525Z,72.76
2018-12-14T04:02:12.354Z,73.45
2018-12-14T04:04:39.916Z,73.55
2018-12-14T04:07:07.489Z,73.25
2018-12-14T04:09:35.153Z,72.62
2018-12-14T04:12:02.721Z,72.14
2018-12-14T04:14:30.288Z,72.42
2018-12-14T04:23:24.256Z,72.08
2018-12-14T04:25:51.842Z,72.40
2018-12-14T04:28:19.596Z,72.10
2018-12-14T04:30:47.351Z,71.94
2018-12-14T04:33:14.995Z,71.54
2018-12-14T04:35:42.586Z,71.47
2018-12-14T04:38:10.211Z,70.62
2018-12-14T04:40:37.773Z,70.54
2018-12-14T04:43:05.388Z,70.64
2018-12-14T04:45:33.040Z,70.94
2018-12-14T04:48:00.617Z,70.31
2018-12-14T04:50:28.210Z,70.66
2018-12-14T04:52:56.117Z,70.39
2018-12-14T04:55:23.681Z,70.85
2018-12-14T04:57:51.250Z,71.37
2018-12-14T05:00:18.913Z,71.99
2018-12-14T05:02:46.481Z,72.29
2018-12-14T05:05:14.117Z,72.72
2018-12-14T05:07:41.869Z,73.37
2018-12-14T05:10:09.479Z,73.78
2018-12-14T05:12:37.338Z,73.96
2018-12-14T05:15:05.165Z,74.25
2018-12-14T05:17:32.764Z,74.54
2018-12-14T05:20:00.328Z,75.10
2018-12-14T05:22:28.356Z,75.00
2018-12-14T05:24:55.924Z,75.40
2018-12-14T05:27:23.561Z,76.02
2018-12-14T05:29:51.217Z,76.05
2018-12-14T05:32:18.805Z,76.23
2018-12-14T05:34:46.364Z,76.63
2018-12-14T05:37:14.014Z,76.64
2018-12-14T05:39:41.581Z,76.87
2018-12-14T05:42:09.153Z,76.73
2018-12-14T05:44:36.961Z,76.53
2018-12-14T05:47:04.528Z,76.13
2018-12-14T05:49:32.098Z,76.60
2018-12-14T05:52:00.056Z,77.82
2018-12-14T05:54:27.628Z,78.69
2018-12-14T05:56:55.276Z,79.58
2018-12-14T05:59:23.138Z,78.19
2018-12-14T06:01:50.729Z,78.75
2018-12-14T06:04:18.293Z,79.76
2018-12-14T06:06:46.221Z,80.46
2018-12-14T06:09:14.859Z,80.58
2018-12-14T06:11:41.489Z,80.57
2018-12-14T06:14:09.515Z,80.32
2018-12-14T06:16:37.081Z,79.02
2018-12-14T06:19:04.645Z,79.92
2018-12-14T06:21:32.400Z,80.28
2018-12-14T06:23:59.965Z,79.70
2018-12-14T06:26:27.546Z,79.87
2018-12-14T06:28:55.162Z,80.55
2018-12-14T06:31:22.732Z,79.44
2018-12-14T06:33:50.305Z,80.52
2018-12-14T06:36:18.064Z,79.91
2018-12-14T06:38:45.618Z,79.89
2018-12-14T06:41:13.181Z,79.62
2018-12-14T06:43:41.049Z,79.19
2018-12-14T06:46:08.621Z,79.15
2018-12-14T06:48:36.264Z,80.18
2018-12-14T06:51:03.972Z,80.67
2018-12-14T06:53:31.546Z,80.38
2018-12-14T06:55:59.117Z,79.78
2018-12-14T06:58:26.718Z,77.91
2018-12-14T07:00:54.309Z,77.93
2018-12-14T07:03:21.894Z,78.63
2018-12-14T07:05:49.525Z,78.75
2018-12-14T07:08:17.087Z,77.75
2018-12-14T07:10:44.645Z,77.31
2018-12-14T07:13:12.405Z,76.85
2018-12-14T07:15:39.996Z,77.31
2018-12-14T07:18:07.598Z,78.16
2018-12-14T07:20:35.354Z,78.75
2018-12-14T07:23:02.916Z,78.24
2018-12-14T07:25:30.506Z,77.75
2018-12-14T07:27:58.229Z,78.07
2018-12-14T07:30:25.808Z,78.50
2018-12-14T07:32:53.384Z,78.74
2018-12-14T07:35:21.120Z,77.73
2018-12-14T07:37:48.673Z,78.56
2018-12-14T07:40:16.252Z,77.30
2018-12-14T07:42:44.006Z,77.60
2018-12-14T07:45:11.576Z,77.80
2018-12-14T07:47:39.223Z,77.57
2018-12-14T07:50:06.974Z,76.39
2018-12-14T07:52:34.549Z,75.85
2018-12-14T07:55:02.129Z,76.80
2018-12-14T07:57:29.959Z,76.35
2018-12-14T07:59:57.525Z,75.45
2018-12-14T08:02:25.086Z,75.79
2018-12-14T08:04:53.038Z,74.92
2018-12-14T08:07:20.614Z,75.05
2018-12-14T08:09:48.197Z,75.58
2018-12-14T08:12:16.031Z,74.89
2018-12-14T08:14:43.609Z,76.57
2018-12-14T08:17:11.181Z,75.47
2018-12-14T08:19:38.913Z,75.49
2018-12-14T08:22:06.483Z,76.51
2018-12-14T08:24:34.053Z,77.06
2018-12-14T08:27:01.900Z,77.55
2018-12-14T08:29:29.467Z,75.57
2018-12-14T08:31:57.038Z,75.87
2018-12-14T08:34:24.885Z,74.52
2018-12-14T08:36:52.465Z,75.95
2018-12-14T08:39:20.029Z,75.89
2018-12-14T08:41:47.870Z,77.97
2018-12-14T08:44:15.436Z,78.38
2018-12-14T08:46:43.005Z,79.18
2018-12-14T08:49:10.953Z,77.40
2018-12-14T08:51:38.521Z,75.86
2018-12-14T08:54:06.088Z,75.32
2018-12-14T08:56:34.049Z,74.78
2018-12-14T08:59:01.764Z,75.21
2018-12-14T09:01:29.333Z,74.53
2018-12-14T09:03:57.136Z,75.41
2018-12-14T09:06:24.722Z,74.66
2018-12-14T09:08:52.293Z,74.70
2018-12-14T09:11:19.897Z,74.88
2018-12-14T09:13:47.971Z,75.38
2018-12-14T09:16:15.101Z,74.95
2018-12-14T09:18:43.102Z,76.30
2018-12-14T09:21:10.709Z,77.28
2018-12-14T09:23:38.269Z,77.71
2018-12-14T09:26:05.914Z,79.35
2018-12-14T09:28:33.536Z,79.05
2018-12-14T09:31:01.130Z,79.65
2018-12-14T09:33:29.061Z,78.40
2018-12-14T09:35:56.629Z,78.27
2018-12-14T09:38:24.218Z,78.16
2018-12-14T09:40:51.934Z,77.87
2018-12-14T09:43:19.510Z,76.97
2018-12-14T09:45:47.089Z,77.56
2018-12-14T09:48:14.724Z,76.35
2018-12-14T09:50:42.297Z,76.64
2018-12-14T09:53:09.932Z,77.36
2018-12-14T09:55:37.703Z,77.79
2018-12-14T09:58:05.273Z,77.27
2018-12-14T10:00:32.837Z,76.98
2018-12-14T10:03:00.585Z,77.47
2018-12-14T10:05:28.194Z,76.72
2018-12-14T10:07:55.768Z,76.32
2018-12-14T10:10:23.571Z,75.97
2018-12-14T10:12:51.142Z,75.97
2018-12-14T10:15:18.725Z,75.99
2018-12-14T10:17:46.555Z,76.63
2018-12-14T10:20:14.145Z,76.46
2018-12-14T10:22:41.729Z,75.56
2018-12-14T10:25:09.341Z,75.70
2018-12-14T10:27:36.916Z,75.91
2018-12-14T10:30:04.576Z,75.73
2018-12-14T10:32:32.205Z,76.34
2018-12-14T10:34:59.769Z,76.13
2018-12-14T10:37:27.574Z,75.34
2018-12-14T10:39:55.379Z,75.72
2018-12-14T10:42:22.974Z,76.32
2018-12-14T10:44:50.589Z,77.59
2018-12-14T10:47:18.196Z,77.17
2018-12-14T10:49:45.801Z,76.76
2018-12-14T10:52:13.437Z,75.48
2018-12-14T10:54:41.168Z,74.79
2018-12-14T10:57:08.737Z,74.75
2018-12-14T10:59:36.337Z,75.36
2018-12-14T11:02:04.014Z,75.64
2018-12-14T11:04:31.580Z,75.94
2018-12-14T11:06:59.158Z,75.83
2018-12-14T11:09:26.777Z,75.00
2018-12-14T11:11:54.356Z,75.53
2018-12-14T11:14:21.921Z,75.76
2018-12-14T11:16:49.842Z,76.16
2018-12-14T11:19:17.477Z,75.96
2018-12-14T11:21:45.049Z,75.83
2018-12-14T11:24:12.926Z,75.65
2018-12-14T11:26:40.529Z,76.59
2018-12-14T11:29:08.104Z,76.24
2018-12-14T11:31:36.121Z,75.21
2018-12-14T11:34:03.706Z,74.58
2018-12-14T11:36:31.276Z,74.67
2018-12-14T11:38:58.909Z,73.21
2018-12-14T11:41:26.581Z,73.48
2018-12-14T11:43:54.153Z,74.27
2018-12-14T11:46:21.789Z,73.72
2018-12-14T11:48:49.369Z,73.39
2018-12-14T11:51:16.943Z,73.75
2018-12-14T11:53:44.597Z,73.02
2018-12-14T11:56:12.173Z,73.27
2018-12-14T11:58:39.737Z,73.26
2018-12-14T12:01:07.390Z,71.68
2018-12-14T12:03:34.965Z,73.07
2018-12-14T12:06:02.542Z,73.14
2018-12-14T12:08:30.331Z,73.31
2018-12-14T12:10:57.918Z,73.86
2018-12-14T12:13:25.497Z,73.67
2018-12-14T12:15:53.415Z,72.32
2018-12-14T12:18:21.045Z,73.05
2018-12-14T12:20:48.604Z,73.56
2018-12-14T12:23:16.297Z,74.47
2018-12-14T12:25:43.869Z,72.65
2018-12-14T12:28:11.432Z,73.37
2018-12-14T12:30:39.288Z,74.61
2018-12-14T12:33:06.861Z,74.49
2018-12-14T12:35:34.432Z,74.80
2018-12-14T12:38:02.168Z,75.16
2018-12-14T12:40:29.789Z,74.39
2018-12-14T12:42:57.361Z,73.75
2018-12-14T12:45:25.501Z,74.00
2018-12-14T12:47:53.067Z,74.55
2018-12-14T12:50:20.633Z,73.26
2018-12-14T12:52:48.260Z,73.55
2018-12-14T12:55:15.836Z,74.36
2018-12-14T12:57:43.565Z,73.97
2018-12-14T13:00:11.259Z,74.74
2018-12-14T13:02:38.825Z,74.86
2018-12-14T13:05:06.459Z,75.28
2018-12-14T13:07:34.200Z,74.55
2018-12-14T13:10:01.823Z,75.17
2018-12-14T13:12:29.398Z,75.13
2018-12-14T13:14:56.997Z,74.99
2018-12-14T13:17:24.573Z,75.55
2018-12-14T13:19:52.149Z,75.41
2018-12-14T13:22:19.972Z,75.06
2018-12-14T13:24:47.545Z,75.92
2018-12-14T13:27:20.196Z,76.66
2018-12-14T13:29:43.054Z,76.50
2018-12-14T13:32:10.631Z,76.15
2018-12-14T13:34:38.196Z,76.50
2018-12-14T13:37:06.007Z,77.16
2018-12-14T13:39:33.579Z,77.15
2018-12-14T13:42:01.185Z,77.80
2018-12-14T13:44:28.853Z,77.75
2018-12-14T13:46:56.435Z,77.18
2018-12-14T13:49:24.032Z,76.24
2018-12-14T13:51:51.681Z,77.27
2018-12-14T13:54:19.261Z,76.74
2018-12-14T13:56:46.834Z,77.91
2018-12-14T13:59:14.461Z,78.36
2018-12-14T14:01:42.038Z,77.56
2018-12-14T14:04:09.605Z,77.60
2018-12-14T14:06:37.789Z,78.04
2018-12-14T14:09:05.444Z,79.15
2018-12-14T14:11:33.024Z,78.91
2018-12-14T14:14:00.850Z,78.92
2018-12-14T14:16:28.424Z,78.52
2018-12-14T14:18:55.996Z,79.51
2018-12-14T14:21:23.693Z,80.11
2018-12-14T14:23:51.277Z,80.17
2018-12-14T14:26:18.856Z,80.32
2018-12-14T14:28:46.814Z,79.79
2018-12-14T14:31:14.389Z,80.96
2018-12-14T14:33:41.960Z,81.76
2018-12-14T14:36:09.556Z,81.96
2018-12-14T14:38:37.141Z,82.05
2018-12-14T14:41:04.720Z,81.83
2018-12-14T14:43:32.581Z,81.08
2018-12-14T14:46:00.148Z,82.66
2018-12-14T14:48:27.716Z,84.16
2018-12-14T14:50:55.467Z,84.35
2018-12-14T14:53:23.038Z,83.73
2018-12-14T14:55:50.616Z,84.11
2018-12-14T14:58:18.253Z,84.19
2018-12-14T15:00:45.837Z,84.24
2018-12-14T15:03:13.446Z,85.67
2018-12-14T15:05:41.184Z,86.18
2018-12-14T15:08:08.767Z,86.79
2018-12-14T15:10:36.346Z,86.67
2018-12-14T15:13:04.074Z,86.75
2018-12-14T15:15:31.644Z,87.59
2018-12-14T15:17:59.243Z,87.95
2018-12-14T15:20:27.002Z,88.09
2018-12-14T15:22:54.565Z,87.64
2018-12-14T15:25:22.156Z,88.14
2018-12-14T15:27:49.989Z,88.43
2018-12-14T15:30:17.585Z,88.76
2018-12-14T15:32:45.153Z,88.85
2018-12-14T15:35:12.974Z,88.87
2018-12-14T15:37:40.565Z,88.68
2018-12-14T15:40:08.216Z,89.05
2018-12-14T15:42:35.957Z,88.65
2018-12-14T15:45:03.626Z,89.52
2018-12-14T15:47:31.201Z,89.26
2018-12-14T15:49:59.032Z,88.63
2018-12-14T15:52:27.991Z,88.12
2018-12-14T15:54:54.235Z,87.58
2018-12-14T15:57:21.878Z,89.05
2018-12-14T15:59:49.477Z,89.73
2018-12-14T16:02:17.064Z,90.12
2018-12-14T16:04:44.917Z,90.55
2018-12-14T16:07:12.512Z,90.30
2018-12-14T16:09:40.109Z,89.98
2018-12-14T16:12:07.968Z,90.30
2018-12-14T16:14:35.541Z,90.02
2018-12-14T16:17:03.355Z,90.69
2018-12-14T16:19:30.993Z,91.08
2018-12-14T16:21:59.497Z,91.50
2018-12-14T16:24:27.098Z,91.85
2018-12-14T16:26:55.039Z,92.55
2018-12-14T16:29:22.621Z,92.71
2018-12-14T16:31:50.194Z,91.88
2018-12-14T16:34:17.948Z,91.97
2018-12-14T16:36:45.536Z,92.42
2018-12-14T16:39:13.128Z,92.77
2018-12-14T16:41:41.000Z,93.14
2018-12-14T16:44:08.600Z,93.34
2018-12-14T16:46:37.892Z,93.04
2018-12-14T16:49:06.444Z,92.52
2018-12-14T16:51:34.061Z,92.38
2018-12-14T16:54:02.616Z,92.82
2018-12-14T16:56:30.899Z,92.69
2018-12-14T16:58:58.565Z,91.97
2018-12-14T17:01:27.078Z,91.32
2018-12-14T17:03:54.782Z,91.76
2018-12-14T17:06:22.356Z,92.63
2018-12-14T17:08:49.945Z,92.68
2018-12-14T17:11:17.812Z,92.61
2018-12-14T17:13:45.416Z,93.20
2018-12-14T17:16:13.013Z,93.57
2018-12-14T17:18:40.874Z,93.73
2018-12-14T17:21:09.667Z,93.12
2018-12-14T17:23:36.161Z,92.23
2018-12-14T17:26:04.118Z,92.43
2018-12-14T17:28:31.716Z,92.96
2018-12-14T17:30:59.873Z,93.47
2018-12-14T17:33:27.802Z,93.91
2018-12-14T17:35:55.780Z,93.86
2018-12-14T17:38:24.169Z,93.89
2018-12-14T17:40:51.926Z,94.16
2018-12-14T17:43:20.282Z,94.20
2018-12-14T17:45:47.892Z,94.54
2018-12-14T17:48:15.799Z,94.31
2018-12-14T17:50:43.388Z,94.66
2018-12-14T17:53:10.974Z,93.19
2018-12-14T17:55:40.413Z,93.61
2018-12-14T17:58:08.009Z,93.79
2018-12-14T18:00:35.608Z,92.93
2018-12-14T18:03:04.306Z,93.19
2018-12-14T18:05:31.892Z,92.98
2018-12-14T18:07:59.508Z,92.90
2018-12-14T18:10:27.266Z,92.88
2018-12-14T18:12:54.869Z,93.24
2018-12-14T18:15:28.639Z,93.70
2018-12-14T18:17:57.194Z,94.35
2018-12-14T18:20:34.567Z,94.73
2018-12-14T18:23:02.393Z,94.57
2018-12-14T18:25:29.813Z,94.35
2018-12-14T18:27:57.804Z,94.74
2018-12-14T18:30:25.393Z,94.68
2018-12-14T18:32:56.040Z,94.80
2018-12-14T18:35:23.961Z,94.67
2018-12-14T18:37:51.561Z,94.69
2018-12-14T18:40:19.698Z,95.00
2018-12-14T18:42:48.294Z,95.30
2018-12-14T18:45:15.888Z,94.28
2018-12-14T18:47:43.496Z,94.23
2018-12-14T18:50:11.589Z,93.76
2018-12-14T18:52:39.195Z,93.92
2018-12-14T18:55:06.829Z,93.41
2018-12-14T18:57:34.675Z,94.00
2018-12-14T19:00:02.299Z,93.67
2018-12-14T19:02:29.875Z,93.49
2018-12-14T19:04:57.643Z,93.34
2018-12-14T19:07:25.228Z,93.72
2018-12-14T19:09:52.832Z,94.45
2018-12-14T19:12:20.697Z,94.54
2018-12-14T19:14:48.289Z,94.88
2018-12-14T19:17:15.877Z,94.88
2018-12-14T19:19:43.714Z,95.11
2018-12-14T19:22:11.322Z,95.20
2018-12-14T19:24:38.904Z,95.37
2018-12-14T19:27:06.550Z,95.60
2018-12-14T19:29:34.145Z,95.79
2018-12-14T19:32:01.727Z,95.68
2018-12-14T19:34:31.544Z,94.68
2018-12-14T19:36:57.324Z,94.30
2018-12-14T19:39:24.937Z,93.98
2018-12-14T19:41:52.745Z,93.82
2018-12-14T19:44:20.349Z,93.59
2018-12-14T19:46:47.924Z,93.57
2018-12-14T19:49:15.940Z,93.09
2018-12-14T19:51:43.574Z,92.83
2018-12-14T19:54:11.162Z,92.84
2018-12-14T20:02:44.193Z,94.04
2018-12-14T20:05:17.039Z,94.50
2018-12-14T20:07:44.826Z,94.75
2018-12-14T20:10:12.426Z,94.96
2018-12-14T20:12:40.010Z,94.90
2018-12-14T20:15:08.104Z,94.91
2018-12-14T20:17:35.685Z,94.93
2018-12-14T20:20:03.332Z,95.20
2018-12-14T20:22:31.087Z,94.91
2018-12-14T20:24:58.661Z,95.12
2018-12-14T20:27:26.234Z,94.61
2018-12-14T20:29:54.075Z,94.83
2018-12-14T20:32:21.692Z,94.47
2018-12-14T20:34:49.293Z,94.33
2018-12-14T20:37:17.162Z,94.10
2018-12-14T20:39:44.745Z,93.71
2018-12-14T20:42:12.317Z,93.77
2018-12-14T20:44:39.957Z,93.85
2018-12-14T20:47:07.553Z,93.78
2018-12-14T20:49:35.150Z,94.42
2018-12-14T20:52:03.068Z,94.53
2018-12-14T20:54:30.643Z,93.93
2018-12-14T20:56:58.226Z,93.23
2018-12-14T20:59:26.154Z,93.08
2018-12-14T21:01:53.787Z,94.16
2018-12-14T21:04:21.369Z,94.44
2018-12-14T21:06:48.972Z,94.98
2018-12-14T21:09:16.549Z,95.18
2018-12-14T21:11:44.133Z,94.59
2018-12-14T21:14:11.989Z,93.69
2018-12-14T21:16:39.577Z,93.19
2018-12-14T21:19:07.153Z,93.44
2018-12-14T21:21:34.805Z,93.12
2018-12-14T21:24:02.401Z,93.27
2018-12-14T21:26:29.976Z,93.54
2018-12-14T21:28:57.893Z,94.17
2018-12-14T21:31:25.516Z,94.73
2018-12-14T21:33:53.085Z,94.93
2018-12-14T21:36:20.912Z,95.28
2018-12-14T21:38:48.500Z,95.48
2018-12-14T21:41:16.085Z,95.18
2018-12-14T21:43:44.070Z,95.09
2018-12-14T21:46:11.649Z,94.80
2018-12-14T21:48:39.217Z,95.08
2018-12-14T21:51:06.862Z,95.38
2018-12-14T21:53:34.457Z,95.62
2018-12-14T21:56:02.036Z,94.73
2018-12-14T21:58:29.672Z,94.13
2018-12-14T22:00:57.252Z,93.99
2018-12-14T22:03:24.850Z,94.04
2018-12-14T22:05:52.594Z,94.08
2018-12-14T22:08:20.165Z,94.26
2018-12-14T22:10:47.740Z,94.25
2018-12-14T22:13:15.593Z,94.43
2018-12-14T22:15:43.169Z,93.95
2018-12-14T22:18:10.750Z,94.54
2018-12-14T22:20:38.649Z,94.60
2018-12-14T22:23:06.228Z,94.62
2018-12-14T22:25:33.801Z,94.41
2018-12-14T22:28:01.558Z,94.39
2018-12-14T22:30:29.129Z,94.18
2018-12-14T22:32:56.749Z,94.58
2018-12-14T22:35:24.558Z,94.44
2018-12-14T22:37:52.123Z,94.65
2018-12-14T22:40:19.703Z,94.93
2018-12-14T22:42:47.532Z,95.04
2018-12-14T22:45:15.108Z,94.77
2018-12-14T22:47:42.680Z,93.94
2018-12-14T22:50:10.628Z,94.33
2018-12-14T22:52:38.194Z,94.37
2018-12-14T22:55:05.805Z,94.62
2018-12-14T22:57:33.625Z,95.05
2018-12-14T23:00:01.296Z,95.42
2018-12-14T23:02:28.864Z,95.34
2018-12-14T23:04:56.478Z,95.76
2018-12-14T23:07:24.047Z,95.38
2018-12-14T23:09:51.713Z,94.46
2018-12-14T23:12:19.583Z,93.87
2018-12-14T23:14:47.170Z,94.54
2018-12-14T23:17:15.681Z,94.77
2018-12-14T23:19:43.589Z,94.22
2018-12-14T23:22:11.157Z,93.55
2018-12-14T23:24:38.718Z,94.19
2018-12-14T23:27:07.604Z,94.58
2018-12-14T23:29:35.176Z,95.21
2018-12-14T23:32:02.784Z,95.06
2018-12-14T23:34:30.421Z,95.09
2018-12-14T23:36:57.993Z,95.57
2018-12-14T23:39:25.562Z,95.64
2018-12-14T23:41:53.460Z,95.31
2018-12-14T23:44:21.022Z,95.37
2018-12-14T23:46:48.997Z,95.57
2018-12-14T23:49:16.617Z,95.73
2018-12-14T23:51:44.205Z,95.72
2018-12-14T23:54:11.770Z,94.91
2018-12-14T23:56:39.645Z,94.48
2018-12-14T23:59:07.212Z,93.64
